Time;durP1;ratioP1;P1;durP2;ratioP2;P2;SDS_P1;SDS_P2;PMS_P1;PMS_P2;Temp;Humidity;BMP_temperature;BMP_pressure;BME280_temperature;BME280_humidity;BME280_pressure;Samples;Min_cycle;Max_cycle;Signal;HPM_P1;HPM_P2
2022/09/13 00:01:50;;;;;;;1999.90;999.90;;;14.40;99.90;;;;;;5071600;28;20465;-70
2022/09/13 00:04:16;;;;;;;1999.90;999.90;;;14.40;99.90;;;;;;5075465;28;20485;-69
2022/09/13 00:06:43;;;;;;;1999.90;999.90;;;14.30;99.90;;;;;;5070922;28;20481;-70
2022/09/13 00:09:10;;;;;;;1999.90;999.90;;;14.40;99.90;;;;;;5069760;28;20465;-71
2022/09/13 00:11:36;;;;;;;1999.90;999.90;;;14.50;99.90;;;;;;5071872;28;20465;-69
2022/09/13 00:14:03;;;;;;;1999.90;999.90;;;14.50;99.90;;;;;;5070906;28;20461;-69
2022/09/13 00:16:31;;;;;;;1999.90;999.90;;;14.40;99.90;;;;;;5069715;28;20474;-70
2022/09/13 00:18:59;;;;;;;1999.90;999.90;;;14.50;99.90;;;;;;5074563;28;20493;-69
2022/09/13 00:21:26;;;;;;;1999.90;999.90;;;14.50;99.90;;;;;;5069129;28;20514;-70
2022/09/13 00:23:55;;;;;;;1999.90;999.90;;;14.60;99.90;;;;;;5068710;28;20460;-70
2022/09/13 00:26:24;;;;;;;1999.90;999.90;;;14.60;99.90;;;;;;5069194;28;20473;-70
2022/09/13 00:28:52;;;;;;;1999.90;999.90;;;14.60;99.90;;;;;;5069509;28;20469;-70
2022/09/13 00:31:20;;;;;;;1999.90;999.90;;;14.50;99.90;;;;;;5067735;28;21009;-69
2022/09/13 00:33:48;;;;;;;1999.90;999.90;;;14.50;99.90;;;;;;5071039;28;20460;-70
2022/09/13 00:36:15;;;;;;;1999.90;999.90;;;14.40;99.90;;;;;;5067018;28;20496;-70
2022/09/13 00:38:42;;;;;;;1999.90;999.90;;;14.50;99.90;;;;;;5071476;28;20569;-70
2022/09/13 00:41:12;;;;;;;1999.90;999.90;;;14.50;99.90;;;;;;5069838;28;20968;-70
2022/09/13 00:43:45;;;;;;;1999.90;999.90;;;14.60;99.90;;;;;;5072521;28;20491;-70
2022/09/13 00:46:16;;;;;;;1999.90;999.90;;;14.50;99.90;;;;;;5070625;28;20484;-69
2022/09/13 00:48:45;;;;;;;1999.90;999.90;;;14.40;99.90;;;;;;5070147;28;20461;-70
2022/09/13 00:51:14;;;;;;;1999.90;999.90;;;14.40;99.90;;;;;;5070539;28;20855;-70
2022/09/13 00:53:45;;;;;;;1999.90;999.90;;;14.40;99.90;;;;;;5067988;28;20530;-70
2022/09/13 00:56:18;;;;;;;1999.90;999.90;;;14.50;99.90;;;;;;5068690;28;20904;-70
2022/09/13 00:58:50;;;;;;;1999.90;999.90;;;14.50;99.90;;;;;;5068759;28;20469;-70
2022/09/13 01:01:20;;;;;;;1999.90;999.90;;;14.60;99.90;;;;;;5067525;28;20464;-70
2022/09/13 01:03:48;;;;;;;1999.90;999.90;;;14.70;99.90;;;;;;5069883;28;20515;-69
2022/09/13 01:06:20;;;;;;;1999.90;999.90;;;14.70;99.90;;;;;;5068618;28;20504;-70
2022/09/13 01:08:50;;;;;;;1999.90;999.90;;;14.70;99.90;;;;;;5070470;28;20493;-70
2022/09/13 01:11:23;;;;;;;1999.90;999.90;;;14.70;99.90;;;;;;5068743;28;20523;-70
2022/09/13 01:13:51;;;;;;;1999.90;999.90;;;14.70;99.90;;;;;;5067706;28;20546;-70
2022/09/13 01:16:17;;;;;;;1999.90;999.90;;;14.80;99.90;;;;;;5067222;28;20477;-70
2022/09/13 01:18:44;;;;;;;1999.90;999.90;;;14.70;99.90;;;;;;5066988;28;20457;-70
2022/09/13 01:21:38;;;;;;;1999.90;999.90;;;14.60;99.90;;;;;;5068831;28;20519;-70
2022/09/13 01:24:37;;;;;;;1999.90;999.90;;;14.70;99.90;;;;;;5069353;28;20461;-69
2022/09/13 01:27:29;;;;;;;1999.90;999.90;;;14.70;99.90;;;;;;5065136;28;20862;-69
2022/09/13 01:30:17;;;;;;;1999.90;999.90;;;14.70;99.90;;;;;;5067323;28;20485;-70
2022/09/13 01:33:06;;;;;;;1999.90;999.90;;;14.70;99.90;;;;;;5064937;28;20465;-70
2022/09/13 01:35:45;;;;;;;1999.90;999.90;;;14.70;99.90;;;;;;5069038;28;20454;-70
2022/09/13 01:38:23;;;;;;;1999.90;999.90;;;14.90;99.90;;;;;;5068465;28;20485;-70
2022/09/13 01:41:01;;;;;;;1999.90;999.90;;;15.00;99.90;;;;;;5067308;28;20461;-71
2022/09/13 01:43:39;;;;;;;1999.90;999.90;;;15.10;99.90;;;;;;5072561;28;20891;-70
2022/09/13 01:46:13;;;;;;;1999.90;999.90;;;15.10;99.90;;;;;;5063947;28;20480;-69
2022/09/13 01:48:54;;;;;;;1999.90;999.90;;;15.10;99.90;;;;;;5068161;28;20522;-70
2022/09/13 01:51:26;;;;;;;1999.90;999.90;;;15.10;99.90;;;;;;5067893;28;20479;-70
2022/09/13 01:54:06;;;;;;;1999.90;999.90;;;15.00;99.90;;;;;;5071012;28;20833;-70
2022/09/13 01:56:38;;;;;;;1999.90;999.90;;;15.00;99.90;;;;;;5068980;28;20478;-70
2022/09/13 01:59:11;;;;;;;1999.90;999.90;;;15.00;99.90;;;;;;5071930;28;20979;-69
2022/09/13 02:01:44;;;;;;;1999.90;999.90;;;15.00;99.90;;;;;;5068923;28;20461;-70
2022/09/13 02:04:15;;;;;;;1999.90;999.90;;;14.90;99.90;;;;;;5067622;28;20457;-70
2022/09/13 02:06:46;;;;;;;1999.90;999.90;;;15.00;99.90;;;;;;5068187;28;20481;-70
2022/09/13 02:09:16;;;;;;;1999.90;999.90;;;15.10;99.90;;;;;;5068477;28;20941;-71
2022/09/13 02:11:46;;;;;;;1999.90;999.90;;;15.20;99.90;;;;;;5070336;28;20945;-69
2022/09/13 02:14:16;;;;;;;1999.90;999.90;;;15.20;99.90;;;;;;5067165;28;20519;-70
2022/09/13 02:16:49;;;;;;;1999.90;999.90;;;15.20;99.90;;;;;;5068065;28;20477;-70
2022/09/13 02:19:20;;;;;;;1999.90;999.90;;;15.20;99.90;;;;;;5067766;28;20461;-70
2022/09/13 02:21:51;;;;;;;1999.90;999.90;;;15.20;99.90;;;;;;5068913;28;20469;-70
2022/09/13 02:24:21;;;;;;;1999.90;999.90;;;15.40;99.90;;;;;;5067535;28;20462;-68
2022/09/13 02:26:52;;;;;;;1999.90;999.90;;;15.50;99.90;;;;;;5067913;28;20509;-70
2022/09/13 02:29:21;;;;;;;1999.90;999.90;;;15.50;99.90;;;;;;5067266;28;20556;-70
2022/09/13 02:31:54;;;;;;;1999.90;999.90;;;15.60;99.90;;;;;;5068837;28;20464;-70
2022/09/13 02:34:23;;;;;;;1999.90;999.90;;;15.60;99.90;;;;;;5067208;28;20918;-69
2022/09/13 02:36:54;;;;;;;1999.90;999.90;;;15.70;99.90;;;;;;5064738;28;20857;-70
2022/09/13 02:39:24;;;;;;;1999.90;999.90;;;15.80;99.90;;;;;;5065361;28;20512;-69
2022/09/13 02:41:56;;;;;;;1999.90;999.90;;;16.00;99.90;;;;;;5072975;28;20519;-70
2022/09/13 02:44:27;;;;;;;1999.90;999.90;;;16.30;99.90;;;;;;5065667;28;20970;-68
2022/09/13 02:47:06;;;;;;;1999.90;999.90;;;16.30;99.90;;;;;;5064128;28;20993;-70
2022/09/13 02:49:44;;;;;;;1999.90;999.90;;;16.30;99.90;;;;;;5067159;28;20461;-71
2022/09/13 02:52:19;;;;;;;1999.90;999.90;;;16.50;99.90;;;;;;5066818;28;20468;-69
2022/09/13 02:54:57;;;;;;;1999.90;999.90;;;17.10;99.90;;;;;;5070319;28;20525;-70
2022/09/13 02:57:31;;;;;;;1999.90;999.90;;;17.30;99.90;;;;;;5067454;28;20469;-70
2022/09/13 02:59:57;;;;;;;1999.90;999.90;;;17.50;99.90;;;;;;5066542;28;20492;-70
2022/09/13 03:02:31;;;;;;;1999.90;999.90;;;17.60;99.90;;;;;;5066231;28;20461;-71
2022/09/13 03:04:59;;;;;;;1999.90;999.90;;;17.60;99.90;;;;;;5064429;28;20890;-71
2022/09/13 03:07:25;;;;;;;1999.90;999.90;;;17.50;99.90;;;;;;5067379;28;20509;-71
2022/09/13 03:09:55;;;;;;;1999.90;999.90;;;17.80;99.90;;;;;;5068195;28;20469;-70
2022/09/13 03:12:34;;;;;;;1999.90;999.90;;;17.90;99.90;;;;;;5067131;28;20542;-70
2022/09/13 03:15:15;;;;;;;1999.90;999.90;;;18.10;99.90;;;;;;5065096;28;20453;-70
2022/09/13 03:17:54;;;;;;;1999.90;999.90;;;18.30;99.90;;;;;;5068128;28;21081;-70
2022/09/13 03:20:27;;;;;;;1999.90;999.90;;;18.40;99.90;;;;;;5066409;28;20518;-70
2022/09/13 03:23:17;;;;;;;1999.90;999.90;;;18.60;99.90;;;;;;5064008;28;20693;-70
2022/09/13 03:26:04;;;;;;;1999.90;999.90;;;18.60;99.90;;;;;;5067362;28;20572;-71
2022/09/13 03:28:38;;;;;;;1999.90;999.90;;;18.70;99.90;;;;;;5069414;28;20480;-70
2022/09/13 03:31:09;;;;;;;1999.90;999.90;;;18.80;99.90;;;;;;5071551;28;20448;-70
2022/09/13 03:33:45;;;;;;;1999.90;999.90;;;18.80;99.90;;;;;;5068730;28;20958;-70
2022/09/13 03:36:15;;;;;;;1999.90;999.90;;;18.80;99.90;;;;;;5064907;28;20546;-70
2022/09/13 03:38:46;;;;;;;1999.90;999.90;;;18.90;99.90;;;;;;5067624;28;21061;-71
2022/09/13 03:41:17;;;;;;;1999.90;999.90;;;18.90;99.90;;;;;;5065951;28;20493;-69
2022/09/13 03:43:48;;;;;;;1999.90;999.90;;;18.90;99.90;;;;;;5067456;28;20453;-70
2022/09/13 03:46:18;;;;;;;1999.90;999.90;;;19.00;99.90;;;;;;5065718;28;20594;-69
2022/09/13 03:48:47;;;;;;;1999.90;999.90;;;19.10;99.90;;;;;;5067068;28;20535;-70
2022/09/13 03:51:14;;;;;;;1999.90;999.90;;;19.10;99.90;;;;;;5067154;28;20487;-70
2022/09/13 03:53:46;;;;;;;1999.90;999.90;;;19.20;99.90;;;;;;5067274;28;20516;-70
2022/09/13 03:56:14;;;;;;;1999.90;999.90;;;19.20;99.90;;;;;;5065653;28;20477;-69
2022/09/13 03:58:41;;;;;;;1999.90;999.90;;;19.20;99.90;;;;;;5066413;28;20469;-71
2022/09/13 04:01:09;;;;;;;1999.90;999.90;;;19.10;99.90;;;;;;5066964;28;20469;-71
2022/09/13 04:03:36;;;;;;;1999.90;999.90;;;19.00;99.90;;;;;;5065500;28;20461;-71
2022/09/13 04:06:04;;;;;;;1999.90;999.90;;;18.90;99.90;;;;;;5066507;28;20489;-70
2022/09/13 04:08:31;;;;;;;1999.90;999.90;;;18.90;99.90;;;;;;5064837;28;20469;-70
2022/09/13 04:10:58;;;;;;;1999.90;999.90;;;19.00;99.90;;;;;;5071981;28;20514;-70
2022/09/13 04:13:25;;;;;;;1999.90;999.90;;;19.00;99.90;;;;;;5071789;28;20465;-70
2022/09/13 04:15:52;;;;;;;1999.90;999.90;;;19.00;99.90;;;;;;5070549;28;20461;-68
2022/09/13 04:18:19;;;;;;;1999.90;999.90;;;19.00;99.90;;;;;;5067713;28;20465;-70
2022/09/13 04:20:54;;;;;;;1999.90;999.90;;;19.00;99.90;;;;;;5071883;28;20462;-69
2022/09/13 04:23:22;;;;;;;1999.90;999.90;;;18.90;99.90;;;;;;5069422;28;20456;-69
2022/09/13 04:25:50;;;;;;;1999.90;999.90;;;18.90;99.90;;;;;;5071645;28;20480;-70
2022/09/13 04:28:17;;;;;;;1999.90;999.90;;;18.80;99.90;;;;;;5070690;28;20461;-69
2022/09/13 04:30:44;;;;;;;1999.90;999.90;;;18.60;99.90;;;;;;5070021;28;20462;-71
2022/09/13 04:33:10;;;;;;;1999.90;999.90;;;18.50;99.90;;;;;;5070781;28;20514;-69
2022/09/13 04:35:38;;;;;;;1999.90;999.90;;;18.40;99.90;;;;;;5068586;28;21021;-70
2022/09/13 04:38:04;;;;;;;1999.90;999.90;;;18.40;99.90;;;;;;5071261;28;21000;-70
2022/09/13 04:40:33;;;;;;;1999.90;999.90;;;18.20;99.90;;;;;;5068497;28;20814;-70
2022/09/13 04:43:01;;;;;;;1999.90;999.90;;;18.10;99.90;;;;;;5070521;28;20472;-69
2022/09/13 04:45:27;;;;;;;1999.90;999.90;;;18.10;99.90;;;;;;5069815;28;20457;-70
2022/09/13 04:47:55;;;;;;;1999.90;999.90;;;18.10;99.90;;;;;;5071115;28;21005;-70
2022/09/13 04:50:23;;;;;;;1999.90;999.90;;;18.00;99.90;;;;;;5070352;28;20461;-71
2022/09/13 04:52:50;;;;;;;1999.90;999.90;;;17.90;99.90;;;;;;5067422;28;20511;-68
2022/09/13 04:55:17;;;;;;;1999.90;999.90;;;17.80;99.90;;;;;;5064133;28;21028;-68
2022/09/13 04:57:45;;;;;;;1999.90;999.90;;;17.70;99.90;;;;;;5066348;28;20482;-68
2022/09/13 05:00:12;;;;;;;1999.90;999.90;;;17.70;99.90;;;;;;5066848;28;20457;-69
2022/09/13 05:02:38;;;;;;;1999.90;999.90;;;17.80;99.90;;;;;;5061410;28;20501;-69
2022/09/13 05:05:06;;;;;;;1999.90;999.90;;;17.70;99.90;;;;;;5053965;28;20472;-68
2022/09/13 05:07:32;;;;;;;1999.90;999.90;;;17.70;99.90;;;;;;5066197;28;20579;-68
2022/09/13 05:09:59;;;;;;;1999.90;999.90;;;17.70;99.90;;;;;;5057322;28;20488;-69
2022/09/13 05:12:25;;;;;;;1999.90;999.90;;;17.70;99.90;;;;;;5079240;28;20479;-68
2022/09/13 05:14:53;;;;;;;1999.90;999.90;;;17.80;99.90;;;;;;5078069;28;20922;-69
2022/09/13 05:17:20;;;;;;;1999.90;999.90;;;17.70;99.90;;;;;;5054213;28;20494;-70
2022/09/13 05:19:48;;;;;;;1999.90;999.90;;;17.70;99.90;;;;;;5060411;28;20472;-69
2022/09/13 05:22:14;;;;;;;1999.90;999.90;;;17.70;99.90;;;;;;5064220;28;20464;-70
2022/09/13 05:24:41;;;;;;;1999.90;999.90;;;17.60;99.90;;;;;;5073309;28;20498;-70
2022/09/13 05:27:08;;;;;;;1999.90;999.90;;;17.60;99.90;;;;;;5072673;28;20507;-68
2022/09/13 05:29:35;;;;;;;1999.90;999.90;;;17.70;99.90;;;;;;5069358;28;20461;-70
2022/09/13 05:32:03;;;;;;;1999.90;999.90;;;17.70;99.90;;;;;;5069798;28;20538;-69
2022/09/13 05:34:29;;;;;;;1999.90;999.90;;;17.80;99.90;;;;;;5068557;28;20457;-69
2022/09/13 05:36:59;;;;;;;1999.90;999.90;;;17.80;99.90;;;;;;5071043;28;21033;-69
2022/09/13 05:39:26;;;;;;;1999.90;999.90;;;17.80;99.90;;;;;;5064080;28;20516;-70
2022/09/13 05:41:52;;;;;;;1999.90;999.90;;;17.70;99.90;;;;;;5069151;28;20458;-69
2022/09/13 05:44:19;;;;;;;1999.90;999.90;;;17.70;99.90;;;;;;5067410;28;20560;-69
2022/09/13 05:46:47;;;;;;;1999.90;999.90;;;17.70;99.90;;;;;;5067370;28;20477;-70
2022/09/13 05:49:15;;;;;;;1999.90;999.90;;;17.60;99.90;;;;;;5072805;28;20455;-70
2022/09/13 05:51:42;;;;;;;1999.90;999.90;;;17.70;99.90;;;;;;5072856;28;20442;-69
2022/09/13 05:54:11;;;;;;;1999.90;999.90;;;17.70;99.90;;;;;;5073096;28;20441;-71
2022/09/13 05:56:38;;;;;;;1999.90;999.90;;;17.70;99.90;;;;;;5076001;28;20496;-70
2022/09/13 05:59:04;;;;;;;1999.90;999.90;;;17.80;99.90;;;;;;5072733;28;20462;-70
2022/09/13 06:01:31;;;;;;;1999.90;999.90;;;17.80;99.90;;;;;;5053010;28;20446;-71
2022/09/13 06:03:59;;;;;;;1999.90;999.90;;;17.90;99.90;;;;;;5052560;28;20811;-70
2022/09/13 06:06:27;;;;;;;1999.90;999.90;;;18.10;99.90;;;;;;5052146;28;21001;-70
2022/09/13 06:08:54;;;;;;;1999.90;999.90;;;18.20;99.90;;;;;;5052875;28;20446;-70
2022/09/13 06:11:22;;;;;;;1999.90;999.90;;;18.30;99.90;;;;;;5064218;28;20523;-70
2022/09/13 06:13:49;;;;;;;1999.90;999.90;;;18.30;99.90;;;;;;5068650;28;20966;-70
2022/09/13 06:16:16;;;;;;;1999.90;999.90;;;18.30;99.90;;;;;;5070885;28;20530;-70
2022/09/13 06:18:43;;;;;;;1999.90;999.90;;;18.40;99.90;;;;;;5068510;28;20964;-70
2022/09/13 06:21:16;;;;;;;1999.90;999.90;;;18.50;99.90;;;;;;5070860;28;20461;-70
2022/09/13 06:23:44;;;;;;;1999.90;999.90;;;18.50;99.90;;;;;;5068812;28;20453;-70
2022/09/13 06:26:13;;;;;;;1999.90;999.90;;;18.50;99.90;;;;;;5064956;28;20489;-69
2022/09/13 06:28:40;;;;;;;1999.90;999.90;;;18.60;99.90;;;;;;5068445;28;20460;-70
2022/09/13 06:31:08;;;;;;;1999.90;999.90;;;18.70;99.90;;;;;;5065613;28;20470;-72
2022/09/13 06:33:37;;;;;;;1999.90;999.90;;;18.70;99.90;;;;;;5067843;28;20519;-70
2022/09/13 06:36:06;;;;;;;1999.90;999.90;;;18.70;99.90;;;;;;5067661;28;20485;-70
2022/09/13 06:38:33;;;;;;;1999.90;999.90;;;18.80;99.90;;;;;;5068712;28;20453;-70
2022/09/13 06:41:02;;;;;;;1999.90;999.90;;;18.80;99.90;;;;;;5069004;28;20888;-70
2022/09/13 06:43:29;;;;;;;1999.90;999.90;;;18.90;99.90;;;;;;5062298;28;20472;-70
2022/09/13 06:46:00;;;;;;;1999.90;999.90;;;19.10;99.90;;;;;;5068881;28;20518;-71
2022/09/13 06:48:26;;;;;;;1999.90;999.90;;;19.20;99.90;;;;;;5068494;28;20457;-71
2022/09/13 06:50:57;;;;;;;1999.90;999.90;;;19.30;99.90;;;;;;5066870;28;20471;-69
2022/09/13 06:53:24;;;;;;;1999.90;999.90;;;19.50;99.90;;;;;;5068279;28;20457;-70
2022/09/13 06:56:01;;;;;;;1999.90;999.90;;;19.50;99.90;;;;;;5071116;28;20445;-71
2022/09/13 06:58:30;;;;;;;1999.90;999.90;;;19.60;99.90;;;;;;5051766;28;20438;-71
2022/09/13 07:01:11;;;;;;;1999.90;999.90;;;19.70;99.90;;;;;;5057610;28;20553;-70
2022/09/13 07:03:39;;;;;;;1999.90;999.90;;;19.70;99.90;;;;;;5073300;28;20544;-71
2022/09/13 07:06:11;;;;;;;1999.90;999.90;;;19.80;99.90;;;;;;5053646;28;20446;-70
2022/09/13 07:08:38;;;;;;;1999.90;999.90;;;19.80;99.90;;;;;;5051764;28;20443;-70
2022/09/13 07:11:06;;;;;;;1999.90;999.90;;;19.90;99.90;;;;;;5051887;28;20442;-70
2022/09/13 07:13:33;;;;;;;1999.90;999.90;;;19.90;99.90;;;;;;5051593;28;20787;-70
2022/09/13 07:16:02;;;;;;;1999.90;999.90;;;20.10;99.90;;;;;;5068274;28;20885;-70
2022/09/13 07:18:29;;;;;;;1999.90;999.90;;;20.30;99.90;;;;;;5067638;28;20450;-70
2022/09/13 07:21:00;;;;;;;1999.90;999.90;;;20.60;99.90;;;;;;5051666;28;20485;-70
2022/09/13 07:23:27;;;;;;;1999.90;999.90;;;20.80;99.90;;;;;;5051705;28;20516;-72
2022/09/13 07:25:54;;;;;;;1999.90;999.90;;;21.00;99.90;;;;;;5051279;28;20454;-72
2022/09/13 07:28:22;;;;;;;1999.90;999.90;;;21.10;99.90;;;;;;5066564;28;20572;-73
2022/09/13 07:30:49;;;;;;;1999.90;999.90;;;21.10;99.90;;;;;;5073892;28;20465;-73
2022/09/13 07:33:15;;;;;;;1999.90;999.90;;;21.10;99.90;;;;;;5068249;28;20846;-71
2022/09/13 07:35:42;;;;;;;1999.90;999.90;;;21.20;99.90;;;;;;5064567;28;20465;-72
2022/09/13 07:38:08;;;;;;;1999.90;999.90;;;21.30;99.90;;;;;;5067577;28;20477;-73
2022/09/13 07:40:36;;;;;;;1999.90;999.90;;;21.50;99.90;;;;;;5071316;28;20454;-73
2022/09/13 07:43:02;;;;;;;1999.90;999.90;;;21.60;99.90;;;;;;5070839;28;20961;-73
2022/09/13 07:45:30;;;;;;;1999.90;999.90;;;21.60;99.90;;;;;;5061639;28;20438;-73
2022/09/13 07:47:57;;;;;;;1999.90;999.90;;;21.60;99.90;;;;;;5055164;28;20552;-72
2022/09/13 07:50:23;;;;;;;1999.90;999.90;;;21.70;99.90;;;;;;5055471;28;20446;-72
2022/09/13 07:52:50;;;;;;;1999.90;999.90;;;21.70;99.90;;;;;;5055321;28;20446;-73
2022/09/13 07:55:16;;;;;;;1999.90;999.90;;;21.80;99.90;;;;;;5065433;28;20496;-73
2022/09/13 07:57:43;;;;;;;1999.90;999.90;;;22.00;99.90;;;;;;5075103;28;20969;-72
2022/09/13 08:00:11;;;;;;;1999.90;999.90;;;22.10;99.90;;;;;;5073186;28;20462;-73
2022/09/13 08:02:39;;;;;;;1999.90;999.90;;;22.10;99.90;;;;;;5074314;28;20457;-72
2022/09/13 08:05:06;;;;;;;1999.90;999.90;;;22.10;99.90;;;;;;5072090;28;20870;-72
2022/09/13 08:07:32;;;;;;;1999.90;999.90;;;22.10;99.90;;;;;;5070170;28;20992;-73
2022/09/13 08:09:59;;;;;;;1999.90;999.90;;;22.10;99.90;;;;;;5072438;28;20825;-72
2022/09/13 08:12:26;;;;;;;1999.90;999.90;;;22.10;99.90;;;;;;5072527;28;20457;-72
2022/09/13 08:14:52;;;;;;;1999.90;999.90;;;22.10;99.90;;;;;;5069692;28;20453;-73
2022/09/13 08:17:19;;;;;;;1999.90;999.90;;;22.10;99.90;;;;;;5072056;28;20473;-72
2022/09/13 08:19:47;;;;;;;1999.90;999.90;;;22.20;99.90;;;;;;5069150;28;20997;-72
2022/09/13 08:22:13;;;;;;;1999.90;999.90;;;22.30;99.90;;;;;;5070537;28;20830;-72
2022/09/13 08:24:40;;;;;;;1999.90;999.90;;;22.40;99.90;;;;;;5074624;28;20461;-73
2022/09/13 08:27:06;;;;;;;1999.90;999.90;;;22.50;99.90;;;;;;5071269;28;20477;-73
2022/09/13 08:29:33;;;;;;;1999.90;999.90;;;22.50;99.90;;;;;;5069922;28;20482;-73
2022/09/13 08:31:59;;;;;;;1999.90;999.90;;;22.70;99.90;;;;;;5071031;28;20531;-73
2022/09/13 08:34:26;;;;;;;1999.90;999.90;;;22.70;99.90;;;;;;5070611;28;20465;-72
2022/09/13 08:36:54;;;;;;;1999.90;999.90;;;22.70;99.90;;;;;;5069215;28;20477;-72
2022/09/13 08:39:21;;;;;;;1999.90;999.90;;;22.90;99.90;;;;;;5071293;28;20457;-73
2022/09/13 08:42:06;;;;;;;1999.90;999.90;;;22.90;99.90;;;;;;5069742;28;20606;-73
2022/09/13 08:44:35;;;;;;;1999.90;999.90;;;23.00;99.90;;;;;;5072387;28;20523;-73
2022/09/13 08:47:16;;;;;;;1999.90;999.90;;;23.00;99.90;;;;;;5072544;28;20535;-73
2022/09/13 08:49:46;;;;;;;1999.90;999.90;;;23.00;99.90;;;;;;5075650;28;20465;-70
2022/09/13 08:52:27;;;;;;;1999.90;999.90;;;22.90;99.90;;;;;;5071217;28;20978;-71
2022/09/13 08:54:54;;;;;;;1999.90;999.90;;;23.00;99.90;;;;;;5070396;28;21031;-72
2022/09/13 08:57:28;;;;;;;1999.90;999.90;;;23.10;99.90;;;;;;5070032;28;20501;-70
2022/09/13 09:00:00;;;;;;;1999.90;999.90;;;23.20;99.90;;;;;;5072074;28;20457;-73
2022/09/13 09:02:44;;;;;;;1999.90;999.90;;;23.30;99.90;;;;;;5066744;28;20469;-72
2022/09/13 09:05:17;;;;;;;1999.90;999.90;;;23.40;99.90;;;;;;5073990;28;20437;-72
2022/09/13 09:07:50;;;;;;;1999.90;999.90;;;23.60;99.90;;;;;;5053837;28;20533;-71
2022/09/13 09:10:20;;;;;;;1999.90;999.90;;;23.80;99.90;;;;;;5054102;28;20529;-71
2022/09/13 09:12:50;;;;;;;1999.90;999.90;;;23.90;99.90;;;;;;5053440;28;20446;-71
2022/09/13 09:15:21;;;;;;;1999.90;999.90;;;23.80;99.90;;;;;;5053612;28;20454;-71
2022/09/13 09:17:55;;;;;;;1999.90;999.90;;;23.70;99.90;;;;;;5071640;28;20478;-72
2022/09/13 09:20:30;;;;;;;1999.90;999.90;;;23.60;99.90;;;;;;5062223;28;20533;-74
2022/09/13 09:23:02;;;;;;;1999.90;999.90;;;23.40;99.90;;;;;;5053865;28;20438;-74
2022/09/13 09:25:28;;;;;;;1999.90;999.90;;;23.10;99.90;;;;;;5053551;28;20434;-74
2022/09/13 09:27:56;;;;;;;1999.90;999.90;;;23.00;99.90;;;;;;5053603;28;20490;-74
2022/09/13 09:30:22;;;;;;;1999.90;999.90;;;22.90;99.90;;;;;;5053616;28;20450;-74
2022/09/13 09:33:16;;;;;;;1999.90;999.90;;;22.80;99.90;;;;;;5075821;28;20461;-74
2022/09/13 09:35:51;;;;;;;1999.90;999.90;;;22.70;99.90;;;;;;5067212;28;20445;-73
2022/09/13 09:38:40;;;;;;;1999.90;999.90;;;22.70;99.90;;;;;;5073497;28;20868;-74
2022/09/13 09:41:13;;;;;;;1999.90;999.90;;;22.70;99.90;;;;;;5073308;28;20532;-73
2022/09/13 09:43:46;;;;;;;1999.90;999.90;;;22.70;99.90;;;;;;5073329;28;20484;-70
2022/09/13 09:46:16;;;;;;;1999.90;999.90;;;22.60;99.90;;;;;;5078486;28;20488;-70
2022/09/13 09:48:47;;;;;;;1999.90;999.90;;;22.40;99.90;;;;;;5073035;28;20513;-71
2022/09/13 09:51:17;;;;;;;1999.90;999.90;;;22.30;99.90;;;;;;5074616;28;20456;-73
2022/09/13 09:53:49;;;;;;;1999.90;999.90;;;22.40;99.90;;;;;;5073194;28;20441;-73
2022/09/13 09:56:22;;;;;;;1999.90;999.90;;;22.40;99.90;;;;;;5072854;28;20480;-72
2022/09/13 09:58:49;;;;;;;1999.90;999.90;;;22.40;99.90;;;;;;5072938;28;20956;-73
2022/09/13 10:01:21;;;;;;;1999.90;999.90;;;22.50;99.90;;;;;;5071026;28;20461;-73
2022/09/13 10:03:54;;;;;;;1999.90;999.90;;;22.50;99.90;;;;;;5085907;28;20968;-72
2022/09/13 10:06:24;;;;;;;1999.90;999.90;;;22.50;99.90;;;;;;5072072;28;20469;-74
2022/09/13 10:08:59;;;;;;;1999.90;999.90;;;22.60;99.90;;;;;;5072712;28;20481;-73
2022/09/13 10:11:42;;;;;;;1999.90;999.90;;;22.60;99.90;;;;;;5072643;28;20452;-74
2022/09/13 10:14:34;;;;;;;1999.90;999.90;;;22.60;99.90;;;;;;5072543;28;20433;-73
2022/09/13 10:17:21;;;;;;;1999.90;999.90;;;22.70;99.90;;;;;;5065803;28;20485;-71
2022/09/13 10:19:53;;;;;;;1999.90;999.90;;;22.90;99.90;;;;;;5057396;28;20958;-73
2022/09/13 10:22:21;;;;;;;1999.90;999.90;;;23.20;99.90;;;;;;5052542;28;20445;-74
2022/09/13 10:24:50;;;;;;;1999.90;999.90;;;23.40;99.90;;;;;;5056993;28;20544;-73
2022/09/13 10:27:32;;;;;;;1999.90;999.90;;;23.50;99.90;;;;;;5068742;28;21007;-73
2022/09/13 10:30:01;;;;;;;1999.90;999.90;;;23.60;99.90;;;;;;5066951;28;20461;-73
2022/09/13 10:32:28;;;;;;;1999.90;999.90;;;23.80;99.90;;;;;;5070122;28;20488;-74
2022/09/13 10:34:57;;;;;;;1999.90;999.90;;;23.60;99.90;;;;;;5069049;28;20522;-72
2022/09/13 10:37:30;;;;;;;1999.90;999.90;;;23.40;99.90;;;;;;5068535;28;20492;-73
2022/09/13 10:40:04;;;;;;;1999.90;999.90;;;23.40;99.90;;;;;;5068302;28;20465;-73
2022/09/13 10:42:31;;;;;;;1999.90;999.90;;;23.60;99.90;;;;;;5069519;28;20518;-72
2022/09/13 10:45:01;;;;;;;1999.90;999.90;;;24.00;99.90;;;;;;5069972;28;20552;-73
2022/09/13 10:47:33;;;;;;;1999.90;999.90;;;24.20;99.90;;;;;;5067873;28;21003;-73
2022/09/13 10:50:12;;;;;;;1999.90;999.90;;;24.10;99.90;;;;;;5068548;28;20466;-73
2022/09/13 10:52:43;;;;;;;1999.90;999.90;;;23.90;99.90;;;;;;5066484;28;20492;-73
2022/09/13 10:55:26;;;;;;;1999.90;999.90;;;23.50;99.90;;;;;;5068906;28;20551;-73
2022/09/13 10:57:54;;;;;;;1999.90;999.90;;;23.40;99.90;;;;;;5068330;28;20484;-72
2022/09/13 11:00:29;;;;;;;1999.90;999.90;;;23.60;99.90;;;;;;5071422;28;20454;-73
2022/09/13 11:03:23;;;;;;;1999.90;999.90;;;23.60;99.90;;;;;;5067777;28;20552;-70
2022/09/13 11:05:57;;;;;;;1999.90;999.90;;;23.50;99.90;;;;;;5063874;28;20512;-73
2022/09/13 11:08:33;;;;;;;1999.90;999.90;;;23.50;99.90;;;;;;5068749;28;20481;-73
2022/09/13 11:11:12;;;;;;;1999.90;999.90;;;23.40;99.90;;;;;;5069863;28;20522;-73
2022/09/13 11:13:51;;;;;;;1999.90;999.90;;;23.20;99.90;;;;;;5076784;28;20453;-73
2022/09/13 11:16:32;;;;;;;1999.90;999.90;;;23.20;99.90;;;;;;5069465;28;20492;-73
2022/09/13 11:19:17;;;;;;;1999.90;999.90;;;23.20;99.90;;;;;;5067742;28;20465;-70
2022/09/13 11:21:54;;;;;;;1999.90;999.90;;;23.10;99.90;;;;;;5064348;28;20461;-72
2022/09/13 11:24:39;;;;;;;1999.90;999.90;;;23.10;99.90;;;;;;5068638;28;20507;-72
2022/09/13 11:27:16;;;;;;;1999.90;999.90;;;23.20;99.90;;;;;;5068625;28;20517;-73
2022/09/13 11:30:04;;;;;;;1999.90;999.90;;;23.30;99.90;;;;;;5069636;28;20453;-73
2022/09/13 11:32:51;;;;;;;1999.90;999.90;;;23.20;99.90;;;;;;5065598;28;20500;-75
2022/09/13 11:35:28;;;;;;;1999.90;999.90;;;23.20;99.90;;;;;;5067763;28;20453;-73
2022/09/13 11:38:04;;;;;;;1999.90;999.90;;;23.00;99.90;;;;;;5079285;22;20510;-73
2022/09/13 11:40:43;;;;;;;1999.90;999.90;;;22.90;99.90;;;;;;5040998;28;20469;-73
2022/09/13 11:43:44;;;;;;;1999.90;999.90;;;22.90;99.90;;;;;;5032276;28;20435;-73
2022/09/13 11:46:17;;;;;;;1999.90;999.90;;;22.70;99.90;;;;;;5031722;28;20439;-73
2022/09/13 11:49:24;;;;;;;1999.90;999.90;;;22.80;99.90;;;;;;5031688;28;20514;-74
2022/09/13 11:52:00;;;;;;;1999.90;999.90;;;22.90;99.90;;;;;;4980544;28;21020;-73
2022/09/13 11:54:43;;;;;;;1999.90;999.90;;;22.90;99.90;;;;;;5047712;28;20522;-73
2022/09/13 11:57:14;;;;;;;1999.90;999.90;;;22.80;99.90;;;;;;5048759;28;20466;-72
2022/09/13 11:59:51;;;;;;;1999.90;999.90;;;22.90;99.90;;;;;;5032697;28;20455;-71
2022/09/13 12:02:24;;;;;;;1999.90;999.90;;;22.90;99.90;;;;;;5046996;28;20496;-73
2022/09/13 12:04:53;;;;;;;1999.90;999.90;;;22.70;99.90;;;;;;5039583;28;20462;-75
2022/09/13 12:07:29;;;;;;;1999.90;999.90;;;22.70;99.90;;;;;;5057303;28;20999;-72
2022/09/13 12:10:02;;;;;;;1999.90;999.90;;;22.60;99.90;;;;;;5052935;28;20471;-73
2022/09/13 12:12:34;;;;;;;1999.90;999.90;;;22.60;99.90;;;;;;5043023;28;20894;-73
2022/09/13 12:15:06;;;;;;;1999.90;999.90;;;22.60;99.90;;;;;;5044089;28;20467;-73
2022/09/13 12:17:38;;;;;;;1999.90;999.90;;;22.60;99.90;;;;;;5053407;28;20496;-70
2022/09/13 12:20:14;;;;;;;1999.90;999.90;;;22.60;99.90;;;;;;5057139;28;20500;-72